Hovedside
METAR-TAF:

METAR-TAF

Lufthavner :

Wallis, Frankrike

breddegrad: 13-14S, lengdegrad: 176-10W, høyde over havet: 23 m

METAR: fraværende

Tid: 22:56 (10:56 UTC)

Varsel

Denne rapporten ble laget for 5 timer og 56 minutter siden, klokken 05:00 UTC
Varsel gyldig fra 21. klokken 06 UTC til 22. klokken 06 UTC
Vind 8 kt fra Sørøst
Sikt 10 km eller mer
Spredte skyer i en høyde av 2000 ft
Sannsynlighet 30% :
Midlertidig
fra 21. klokken 12 UTC til 22. klokken 06 UTC
Sikt: 4000 m
Brutte skyer i en høyde av 1400 ft
Få skyer i en høyde av 2000 ft, Bygeskyer.
regnbyger

TAF: NLWW 210500Z 2106/2206 14008KT 9999 SCT020 PROB30 TEMPO 2112/2206 4000 SHRA BKN014 FEW020CB

Værobservasjoner og værvarsel for over 4000 flyplasser (METAR- og TAF-rapporter).

Tilgjengelige stasjoner er representert av de røde og gule prikkene på kartet.

Hold musepekeren over prikken for å se navnet på stasjonen.

Klikk så for å se værobservasjoner og -varsler.

For å forandre kartet kan du klikke på den grønne knappen med svart kryss for å zoome inn, på den grønne knappen med strek for å zoome ut, eller på de grønne pilene for å se tilstøtende kart.


METAR-TAF: